LUF21 UNNT-PANC
Flight info
| Callsign | LUF21 |
|---|---|
| Flight time | N/A |
| Altitude | 31000 |
| Route | DIMID1K DIMID R27 BANOK/K0917F330 R27 OLEMU M188 AKEBA G7 LURET R351 POKEP/K0891F350 R351 BEKMI M182 PEMID M180 NATUR T465 AGURA/N0480F350 DCT OTZ J117 GAL Q8 KKYLE KROTO5 |
| Aircraft | MD11/H-SDE1E2E3FGHIJ2J3J4J5M1RWXY/LB1D1 |
Departure
| Time | 2026-05-08 07:32 |
|---|---|
| Airport | Novosibirsk Tolmachevo Airport (UNNT) |
Arrival
| Time | N/A |
|---|---|
| Airport | Ted Stevens Anchorage International Airport (PANC) |
| Time | Latitude | Longitude | Altitude | Speed | Heading |
|---|---|---|---|---|---|
| 2026-05-08 06:50 | 55.00869 | 82.65686 | 380 ft | 0 kts | 128° |
| 2026-05-08 07:22 | 55.00882 | 82.65659 | 380 ft | 4 kts | 133° |
| 2026-05-08 07:22 | 55.00899 | 82.65626 | 380 ft | 4 kts | 128° |
| 2026-05-08 07:22 | 55.00911 | 82.65586 | 380 ft | 4 kts | 92° |
| 2026-05-08 07:23 | 55.00908 | 82.65541 | 380 ft | 4 kts | 81° |
| 2026-05-08 07:23 | 55.00907 | 82.65532 | 380 ft | 5 kts | 81° |
| 2026-05-08 07:25 | 55.00909 | 82.65551 | 380 ft | 5 kts | 81° |
| 2026-05-08 07:26 | 55.00919 | 82.65672 | 380 ft | 15 kts | 81° |
| 2026-05-08 07:26 | 55.00937 | 82.65865 | 380 ft | 15 kts | 81° |
| 2026-05-08 07:26 | 55.00952 | 82.66032 | 380 ft | 13 kts | 81° |
| 2026-05-08 07:26 | 55.00968 | 82.66129 | 380 ft | 6 kts | 67° |
| 2026-05-08 07:27 | 55.00986 | 82.66209 | 380 ft | 8 kts | 70° |
| 2026-05-08 07:27 | 55.01009 | 82.66320 | 380 ft | 11 kts | 70° |
| 2026-05-08 07:27 | 55.01041 | 82.66464 | 380 ft | 14 kts | 68° |
| 2026-05-08 07:27 | 55.01080 | 82.66631 | 380 ft | 16 kts | 67° |
| 2026-05-08 07:28 | 55.01099 | 82.66805 | 380 ft | 13 kts | 91° |
| 2026-05-08 07:28 | 55.01083 | 82.66898 | 380 ft | 4 kts | 104° |
| 2026-05-08 07:28 | 55.01083 | 82.66965 | 380 ft | 8 kts | 88° |
| 2026-05-08 07:28 | 55.01096 | 82.67128 | 380 ft | 18 kts | 81° |
| 2026-05-08 07:29 | 55.01107 | 82.67350 | 380 ft | 17 kts | 89° |
| 2026-05-08 07:29 | 55.01122 | 82.67447 | 380 ft | 1 kts | 53° |
| 2026-05-08 07:29 | 55.01132 | 82.67465 | 380 ft | 3 kts | 43° |
| 2026-05-08 07:29 | 55.01156 | 82.67496 | 380 ft | 5 kts | 31° |
| 2026-05-08 07:30 | 55.01208 | 82.67552 | 380 ft | 12 kts | 31° |
| 2026-05-08 07:30 | 55.01299 | 82.67646 | 380 ft | 18 kts | 31° |
| 2026-05-08 07:30 | 55.01401 | 82.67752 | 379 ft | 16 kts | 31° |
| 2026-05-08 07:30 | 55.01463 | 82.67761 | 379 ft | 5 kts | 320° |
| 2026-05-08 07:31 | 55.01481 | 82.67695 | 379 ft | 6 kts | 283° |
| 2026-05-08 07:31 | 55.01477 | 82.67623 | 379 ft | 6 kts | 259° |
| 2026-05-08 07:31 | 55.01477 | 82.67621 | 379 ft | 0 kts | 259° |
| 2026-05-08 07:31 | 55.01457 | 82.67425 | 378 ft | 49 kts | 261° |
| 2026-05-08 07:32 | 55.01364 | 82.66395 | 382 ft | 121 kts | 261° |
| 2026-05-08 07:32 | 55.01204 | 82.64628 | 381 ft | 175 kts | 261° |
| 2026-05-08 07:32 | 55.00991 | 82.62371 | 581 ft | 195 kts | 261° |
| 2026-05-08 07:32 | 55.00776 | 82.60093 | 1416 ft | 186 kts | 262° |
| 2026-05-08 07:33 | 55.00572 | 82.57852 | 2125 ft | 190 kts | 262° |
| 2026-05-08 07:33 | 55.00372 | 82.55596 | 2853 ft | 189 kts | 263° |
| 2026-05-08 07:33 | 55.00388 | 82.53302 | 3501 ft | 190 kts | 283° |
| 2026-05-08 07:33 | 55.00974 | 82.51144 | 3781 ft | 208 kts | 311° |
| 2026-05-08 07:34 | 55.01994 | 82.49334 | 4307 ft | 212 kts | 316° |
| 2026-05-08 07:34 | 55.03070 | 82.47560 | 4842 ft | 213 kts | 317° |
| 2026-05-08 07:34 | 55.04152 | 82.45798 | 5363 ft | 213 kts | 318° |
| 2026-05-08 07:34 | 55.05228 | 82.44054 | 5848 ft | 214 kts | 318° |
| 2026-05-08 07:35 | 55.06325 | 82.42280 | 6304 ft | 216 kts | 318° |
| 2026-05-08 07:35 | 55.07447 | 82.40470 | 6711 ft | 218 kts | 318° |
| 2026-05-08 07:35 | 55.08565 | 82.38667 | 7095 ft | 220 kts | 318° |
| 2026-05-08 07:35 | 55.09687 | 82.36860 | 7520 ft | 220 kts | 318° |
| 2026-05-08 07:36 | 55.10807 | 82.35058 | 7872 ft | 222 kts | 317° |
| 2026-05-08 07:36 | 55.11941 | 82.33233 | 8270 ft | 222 kts | 317° |
| 2026-05-08 07:36 | 55.13076 | 82.31404 | 8631 ft | 223 kts | 317° |
| 2026-05-08 07:36 | 55.14226 | 82.29551 | 8896 ft | 230 kts | 317° |
| 2026-05-08 07:37 | 55.15449 | 82.27580 | 9048 ft | 246 kts | 317° |
| 2026-05-08 07:37 | 55.16741 | 82.25497 | 9192 ft | 260 kts | 317° |
| 2026-05-08 07:37 | 55.18103 | 82.23298 | 9336 ft | 273 kts | 317° |
| 2026-05-08 07:37 | 55.19534 | 82.20985 | 9469 ft | 286 kts | 317° |
| 2026-05-08 07:38 | 55.21115 | 82.18716 | 9743 ft | 299 kts | 330° |
| 2026-05-08 07:38 | 55.23084 | 82.17451 | 10201 ft | 313 kts | 347° |
| 2026-05-08 07:38 | 55.25322 | 82.16849 | 10359 ft | 336 kts | 353° |
| 2026-05-08 07:38 | 55.27728 | 82.16460 | 10612 ft | 355 kts | 354° |
| 2026-05-08 07:39 | 55.29352 | 82.16236 | 11171 ft | 354 kts | 354° |
| 2026-05-08 07:39 | 55.32674 | 82.15772 | 12109 ft | 360 kts | 354° |
| 2026-05-08 07:39 | 55.35186 | 82.15557 | 12768 ft | 365 kts | 0° |
| 2026-05-08 07:39 | 55.37676 | 82.16188 | 13441 ft | 371 kts | 15° |
| 2026-05-08 07:40 | 55.40026 | 82.18238 | 14050 ft | 379 kts | 36° |
| 2026-05-08 07:40 | 55.41296 | 82.20375 | 14413 ft | 384 kts | 50° |
| 2026-05-08 07:40 | 55.42894 | 82.25985 | 15073 ft | 394 kts | 72° |
| 2026-05-08 07:40 | 55.43543 | 82.30704 | 15601 ft | 399 kts | 77° |
| 2026-05-08 07:41 | 55.44061 | 82.35533 | 16136 ft | 402 kts | 78° |
| 2026-05-08 07:41 | 55.44571 | 82.40391 | 16684 ft | 405 kts | 78° |
| 2026-05-08 07:41 | 55.45117 | 82.45289 | 17215 ft | 409 kts | 77° |
| 2026-05-08 07:41 | 55.45498 | 82.48544 | 17567 ft | 411 kts | 77° |
| 2026-05-08 07:42 | 55.46382 | 82.55125 | 18232 ft | 414 kts | 71° |
| 2026-05-08 07:42 | 55.47504 | 82.59800 | 18661 ft | 414 kts | 57° |
| 2026-05-08 07:42 | 55.49243 | 82.63812 | 19085 ft | 412 kts | 41° |
| 2026-05-08 07:42 | 55.50699 | 82.65925 | 19371 ft | 411 kts | 31° |
| 2026-05-08 07:43 | 55.53249 | 82.68167 | 19761 ft | 408 kts | 15° |
| 2026-05-08 07:43 | 55.56012 | 82.69184 | 20173 ft | 407 kts | 3° |
| 2026-05-08 07:43 | 55.58843 | 82.69399 | 20599 ft | 407 kts | 358° |
| 2026-05-08 07:43 | 55.62616 | 82.69310 | 21150 ft | 410 kts | 356° |
| 2026-05-08 07:44 | 55.65474 | 82.69226 | 21596 ft | 413 kts | 357° |
| 2026-05-08 07:44 | 55.67417 | 82.69197 | 21879 ft | 415 kts | 358° |
| 2026-05-08 07:44 | 55.70311 | 82.69201 | 22342 ft | 417 kts | 358° |
| 2026-05-08 07:44 | 55.73189 | 82.69248 | 22790 ft | 420 kts | 358° |
| 2026-05-08 07:45 | 55.76125 | 82.69321 | 23199 ft | 424 kts | 359° |
| 2026-05-08 07:45 | 55.79117 | 82.69411 | 23631 ft | 426 kts | 359° |
| 2026-05-08 07:45 | 55.82095 | 82.69506 | 24017 ft | 429 kts | 359° |
| 2026-05-08 07:45 | 55.85085 | 82.69604 | 24411 ft | 431 kts | 358° |
| 2026-05-08 07:46 | 55.88093 | 82.69702 | 24810 ft | 434 kts | 358° |
| 2026-05-08 07:46 | 55.91117 | 82.69801 | 25221 ft | 436 kts | 358° |
| 2026-05-08 07:46 | 55.94163 | 82.69899 | 25626 ft | 438 kts | 358° |
| 2026-05-08 07:46 | 55.97179 | 82.70002 | 26009 ft | 441 kts | 359° |
| 2026-05-08 07:47 | 56.00251 | 82.70303 | 26399 ft | 445 kts | 3° |
| 2026-05-08 07:47 | 56.03330 | 82.71190 | 26784 ft | 450 kts | 11° |
| 2026-05-08 07:47 | 56.06337 | 82.72887 | 27155 ft | 456 kts | 20° |
| 2026-05-08 07:47 | 56.09194 | 82.75447 | 27520 ft | 463 kts | 29° |
| 2026-05-08 07:48 | 56.11831 | 82.78823 | 27853 ft | 470 kts | 37° |
| 2026-05-08 07:48 | 56.14237 | 82.82835 | 28196 ft | 475 kts | 43° |
| 2026-05-08 07:48 | 56.16525 | 82.87130 | 28551 ft | 478 kts | 44° |
| 2026-05-08 07:48 | 56.18794 | 82.91544 | 28902 ft | 481 kts | 44° |
| 2026-05-08 07:49 | 56.21072 | 82.95965 | 29263 ft | 483 kts | 44° |
| 2026-05-08 07:49 | 56.23347 | 83.00322 | 29605 ft | 485 kts | 44° |
| 2026-05-08 07:49 | 56.25705 | 83.04780 | 29936 ft | 487 kts | 43° |
| 2026-05-08 07:49 | 56.28058 | 83.09191 | 30208 ft | 490 kts | 43° |
| 2026-05-08 07:50 | 56.30425 | 83.13615 | 30447 ft | 492 kts | 43° |
| 2026-05-08 07:50 | 56.32810 | 83.18070 | 30718 ft | 493 kts | 43° |
| 2026-05-08 07:50 | 56.35162 | 83.22471 | 30886 ft | 495 kts | 43° |
| 2026-05-08 07:51 | 56.39936 | 83.31462 | 30924 ft | 497 kts | 43° |
| 2026-05-08 07:51 | 56.44716 | 83.40513 | 30927 ft | 497 kts | 43° |
| 2026-05-08 07:52 | 56.49489 | 83.49556 | 30928 ft | 497 kts | 43° |
| 2026-05-08 07:52 | 56.54254 | 83.58605 | 30928 ft | 497 kts | 44° |
| 2026-05-08 07:53 | 56.59012 | 83.67675 | 30930 ft | 497 kts | 44° |
| 2026-05-08 07:53 | 56.63769 | 83.76779 | 30927 ft | 497 kts | 44° |
| 2026-05-08 07:54 | 56.68522 | 83.85912 | 30930 ft | 497 kts | 44° |
| 2026-05-08 07:54 | 56.73261 | 83.95057 | 30939 ft | 499 kts | 44° |
| 2026-05-08 07:55 | 56.78011 | 84.04255 | 30934 ft | 499 kts | 44° |
| 2026-05-08 07:55 | 56.82760 | 84.13490 | 30946 ft | 499 kts | 44° |
| 2026-05-08 07:56 | 56.87478 | 84.22699 | 30940 ft | 500 kts | 44° |
| 2026-05-08 07:56 | 56.92220 | 84.31994 | 30939 ft | 500 kts | 44° |
| 2026-05-08 07:57 | 56.96943 | 84.41364 | 30934 ft | 500 kts | 44° |
| 2026-05-08 07:57 | 57.01654 | 84.50776 | 30940 ft | 503 kts | 44° |
| 2026-05-08 07:58 | 57.06399 | 84.60222 | 30942 ft | 503 kts | 44° |
| 2026-05-08 07:58 | 57.11147 | 84.69670 | 30946 ft | 503 kts | 43° |
| 2026-05-08 07:59 | 57.16446 | 84.77913 | 30949 ft | 497 kts | 31° |
| 2026-05-08 07:59 | 57.22182 | 84.84993 | 30935 ft | 496 kts | 29° |
| 2026-05-08 08:00 | 57.27946 | 84.92032 | 30979 ft | 496 kts | 30° |
| 2026-05-08 08:00 | 57.33685 | 84.99243 | 30951 ft | 501 kts | 30° |
| 2026-05-08 08:01 | 57.39428 | 85.06571 | 30957 ft | 501 kts | 30° |
| 2026-05-08 08:01 | 57.45163 | 85.13929 | 30957 ft | 501 kts | 30° |
| 2026-05-08 08:02 | 57.50895 | 85.21303 | 30965 ft | 501 kts | 30° |
| 2026-05-08 08:02 | 57.55650 | 85.27439 | 30962 ft | 500 kts | 30° |
| 2026-05-08 08:03 | 57.62354 | 85.36120 | 30971 ft | 503 kts | 29° |
| 2026-05-08 08:03 | 57.68066 | 85.43549 | 30965 ft | 504 kts | 29° |
| 2026-05-08 08:04 | 57.73844 | 85.51095 | 30974 ft | 504 kts | 30° |
| 2026-05-08 08:04 | 57.79551 | 85.58579 | 30973 ft | 504 kts | 30° |
| 2026-05-08 08:05 | 57.85272 | 85.66180 | 31007 ft | 504 kts | 30° |
| 2026-05-08 08:05 | 57.91012 | 85.73826 | 30998 ft | 506 kts | 29° |
| 2026-05-08 08:06 | 57.96767 | 85.81479 | 30983 ft | 507 kts | 29° |
| 2026-05-08 08:06 | 58.02524 | 85.89158 | 30980 ft | 507 kts | 29° |
| 2026-05-08 08:07 | 58.08282 | 85.96855 | 30984 ft | 507 kts | 29° |
| 2026-05-08 08:07 | 58.14039 | 86.04575 | 31023 ft | 507 kts | 29° |
| 2026-05-08 08:08 | 58.19816 | 86.12349 | 30990 ft | 511 kts | 29° |
| 2026-05-08 08:08 | 58.25598 | 86.20166 | 30992 ft | 511 kts | 29° |
| 2026-05-08 08:09 | 58.31386 | 86.28026 | 30997 ft | 511 kts | 29° |
| 2026-05-08 08:09 | 58.37158 | 86.35894 | 30990 ft | 512 kts | 29° |
| 2026-05-08 08:10 | 58.42944 | 86.43813 | 31039 ft | 512 kts | 29° |
| 2026-05-08 08:10 | 58.48750 | 86.51789 | 30996 ft | 515 kts | 29° |
| 2026-05-08 08:11 | 58.54562 | 86.59811 | 30990 ft | 516 kts | 29° |
| 2026-05-08 08:11 | 58.60340 | 86.67820 | 30989 ft | 516 kts | 29° |
| 2026-05-08 08:12 | 58.66335 | 86.75376 | 30985 ft | 509 kts | 22° |
| 2026-05-08 08:12 | 58.72565 | 86.81777 | 31039 ft | 507 kts | 19° |
| 2026-05-08 08:13 | 58.78812 | 86.87968 | 30997 ft | 509 kts | 20° |
| 2026-05-08 08:13 | 58.85089 | 86.94321 | 30990 ft | 510 kts | 20° |
| 2026-05-08 08:14 | 58.91359 | 87.00767 | 30988 ft | 510 kts | 20° |
| 2026-05-08 08:14 | 58.97627 | 87.07250 | 30989 ft | 510 kts | 20° |
| 2026-05-08 08:15 | 59.03896 | 87.13756 | 31008 ft | 513 kts | 20° |
| 2026-05-08 08:15 | 59.10238 | 87.20359 | 30989 ft | 514 kts | 20° |
| 2026-05-08 08:16 | 59.16493 | 87.26875 | 30987 ft | 514 kts | 20° |
| 2026-05-08 08:16 | 59.22805 | 87.33429 | 30985 ft | 514 kts | 20° |
| 2026-05-08 08:17 | 59.29113 | 87.39986 | 30985 ft | 514 kts | 20° |
| 2026-05-08 08:17 | 59.35419 | 87.46568 | 30979 ft | 513 kts | 20° |
| 2026-05-08 08:18 | 59.41713 | 87.53169 | 30982 ft | 513 kts | 20° |
| 2026-05-08 08:18 | 59.48009 | 87.59800 | 30985 ft | 513 kts | 20° |
| 2026-05-08 08:19 | 59.54300 | 87.66455 | 30980 ft | 513 kts | 20° |
| 2026-05-08 08:19 | 59.60593 | 87.73139 | 30994 ft | 515 kts | 20° |
| 2026-05-08 08:20 | 59.66905 | 87.79870 | 30983 ft | 515 kts | 20° |
| 2026-05-08 08:20 | 59.73166 | 87.86580 | 30985 ft | 516 kts | 20° |
| 2026-05-08 08:21 | 59.79520 | 87.93419 | 30981 ft | 516 kts | 20° |
| 2026-05-08 08:21 | 59.85772 | 88.00215 | 30982 ft | 516 kts | 21° |
| 2026-05-08 08:22 | 59.92084 | 88.07132 | 30989 ft | 519 kts | 20° |
| 2026-05-08 08:22 | 59.98409 | 88.14050 | 30985 ft | 519 kts | 20° |
| 2026-05-08 08:23 | 60.04752 | 88.20998 | 30982 ft | 519 kts | 20° |
| 2026-05-08 08:23 | 60.10061 | 88.26833 | 30982 ft | 520 kts | 20° |
| 2026-05-08 08:24 | 60.17424 | 88.34964 | 31053 ft | 521 kts | 20° |
| 2026-05-08 08:24 | 60.21129 | 88.39066 | 30995 ft | 525 kts | 20° |
| 2026-05-08 08:25 | 60.27537 | 88.46192 | 30982 ft | 526 kts | 20° |
| 2026-05-08 08:25 | 60.33934 | 88.53348 | 30980 ft | 526 kts | 20° |
| 2026-05-08 08:26 | 60.40325 | 88.60526 | 30981 ft | 526 kts | 20° |
| 2026-05-08 08:26 | 60.46726 | 88.67746 | 31033 ft | 526 kts | 20° |
| 2026-05-08 08:27 | 60.53144 | 88.75012 | 30980 ft | 529 kts | 20° |
| 2026-05-08 08:27 | 60.58476 | 88.81121 | 30979 ft | 530 kts | 21° |
| 2026-05-08 08:28 | 60.65966 | 88.89767 | 30978 ft | 530 kts | 20° |
| 2026-05-08 08:28 | 60.71301 | 88.95912 | 30974 ft | 530 kts | 20° |
| 2026-05-08 08:29 | 60.78806 | 89.04568 | 30990 ft | 530 kts | 20° |
| 2026-05-08 08:29 | 60.85186 | 89.11961 | 30974 ft | 530 kts | 20° |
| 2026-05-08 08:30 | 60.91606 | 89.19438 | 30978 ft | 530 kts | 20° |
| 2026-05-08 08:30 | 61.01227 | 89.30712 | 30973 ft | 531 kts | 20° |
| 2026-05-08 08:31 | 61.07635 | 89.38265 | 30995 ft | 529 kts | 20° |
| 2026-05-08 08:31 | 61.12979 | 89.44593 | 30973 ft | 529 kts | 20° |
| 2026-05-08 08:32 | 61.19313 | 89.52128 | 30970 ft | 529 kts | 21° |
| 2026-05-08 08:32 | 61.25681 | 89.59802 | 30974 ft | 529 kts | 21° |
| 2026-05-08 08:33 | 61.32047 | 89.67476 | 30975 ft | 529 kts | 21° |
| 2026-05-08 08:33 | 61.38405 | 89.75143 | 30982 ft | 526 kts | 21° |
| 2026-05-08 08:34 | 61.44732 | 89.82795 | 30968 ft | 526 kts | 21° |
| 2026-05-08 08:34 | 61.51061 | 89.90487 | 30966 ft | 526 kts | 21° |
| 2026-05-08 08:35 | 61.57376 | 89.98265 | 30980 ft | 529 kts | 24° |
| 2026-05-08 08:35 | 61.60375 | 90.02861 | 30970 ft | 540 kts | 33° |
| 2026-05-08 08:35 | 61.63075 | 90.08465 | 30970 ft | 551 kts | 43° |
| 2026-05-08 08:36 | 61.67410 | 90.21932 | 30977 ft | 561 kts | 56° |
| 2026-05-08 08:36 | 61.71303 | 90.36148 | 30964 ft | 560 kts | 54° |
| 2026-05-08 08:37 | 61.75461 | 90.50024 | 30961 ft | 558 kts | 51° |
| 2026-05-08 08:37 | 61.79766 | 90.63644 | 30960 ft | 557 kts | 51° |
| 2026-05-08 08:38 | 61.84081 | 90.77290 | 30962 ft | 559 kts | 51° |
| 2026-05-08 08:38 | 61.88367 | 90.91059 | 30952 ft | 560 kts | 51° |
| 2026-05-08 08:39 | 61.92641 | 91.04839 | 30976 ft | 559 kts | 51° |
| 2026-05-08 08:39 | 61.96914 | 91.18649 | 30957 ft | 560 kts | 51° |
| 2026-05-08 08:40 | 62.01186 | 91.32526 | 30951 ft | 561 kts | 51° |
| 2026-05-08 08:40 | 62.05439 | 91.46432 | 30949 ft | 561 kts | 52° |
| 2026-05-08 08:41 | 62.09659 | 91.60314 | 30944 ft | 562 kts | 52° |
| 2026-05-08 08:41 | 62.13900 | 91.74349 | 30941 ft | 562 kts | 52° |
| 2026-05-08 08:42 | 62.18120 | 91.88406 | 30939 ft | 562 kts | 52° |
| 2026-05-08 08:42 | 62.22330 | 92.02515 | 30937 ft | 562 kts | 52° |
| 2026-05-08 08:43 | 62.26522 | 92.16651 | 30934 ft | 562 kts | 52° |
| 2026-05-08 08:43 | 62.30676 | 92.30890 | 30930 ft | 563 kts | 53° |
| 2026-05-08 08:44 | 62.34798 | 92.45209 | 30929 ft | 563 kts | 53° |
| 2026-05-08 08:44 | 62.38939 | 92.59513 | 30924 ft | 563 kts | 53° |
| 2026-05-08 08:45 | 62.43081 | 92.73824 | 30915 ft | 563 kts | 53° |
| 2026-05-08 08:45 | 62.47211 | 92.88176 | 30920 ft | 563 kts | 53° |
| 2026-05-08 08:46 | 62.51331 | 93.02598 | 30935 ft | 564 kts | 53° |
| 2026-05-08 08:46 | 62.55439 | 93.17074 | 30911 ft | 564 kts | 53° |
| 2026-05-08 08:47 | 62.59535 | 93.31603 | 30906 ft | 565 kts | 54° |
| 2026-05-08 08:47 | 62.63592 | 93.46085 | 30895 ft | 565 kts | 54° |
| 2026-05-08 08:48 | 62.67655 | 93.60683 | 30889 ft | 565 kts | 54° |
| 2026-05-08 08:48 | 62.71712 | 93.75361 | 30876 ft | 566 kts | 54° |
| 2026-05-08 08:49 | 62.75699 | 93.90147 | 30872 ft | 566 kts | 55° |
| 2026-05-08 08:49 | 62.79698 | 94.04994 | 30890 ft | 568 kts | 54° |
| 2026-05-08 08:50 | 62.83722 | 94.19862 | 30864 ft | 568 kts | 54° |
| 2026-05-08 08:50 | 62.87745 | 94.34779 | 30861 ft | 569 kts | 54° |
| 2026-05-08 08:51 | 62.91752 | 94.49745 | 30844 ft | 569 kts | 55° |
| 2026-05-08 08:51 | 62.95742 | 94.64755 | 30855 ft | 570 kts | 55° |
| 2026-05-08 08:52 | 62.99717 | 94.79816 | 30855 ft | 570 kts | 55° |
| 2026-05-08 08:52 | 63.03676 | 94.94913 | 30845 ft | 570 kts | 56° |
| 2026-05-08 08:53 | 63.07625 | 95.10078 | 30847 ft | 570 kts | 56° |
| 2026-05-08 08:53 | 63.11562 | 95.25298 | 30837 ft | 571 kts | 56° |
| 2026-05-08 08:54 | 63.15454 | 95.40587 | 30825 ft | 572 kts | 57° |
| 2026-05-08 08:54 | 63.19294 | 95.55950 | 30826 ft | 572 kts | 57° |
| 2026-05-08 08:55 | 63.23170 | 95.71354 | 30824 ft | 572 kts | 56° |
| 2026-05-08 08:55 | 63.27047 | 95.86753 | 30810 ft | 572 kts | 57° |
| 2026-05-08 08:56 | 63.30888 | 96.02242 | 30881 ft | 572 kts | 57° |
| 2026-05-08 08:56 | 63.34660 | 96.17654 | 30799 ft | 571 kts | 57° |
| 2026-05-08 08:57 | 63.38479 | 96.33309 | 30796 ft | 571 kts | 58° |
| 2026-05-08 08:57 | 63.42234 | 96.48774 | 30786 ft | 571 kts | 58° |
| 2026-05-08 08:58 | 63.46002 | 96.64396 | 30784 ft | 571 kts | 58° |
| 2026-05-08 08:58 | 63.49754 | 96.80070 | 30771 ft | 571 kts | 58° |
| 2026-05-08 08:59 | 63.53486 | 96.95774 | 30779 ft | 571 kts | 58° |
| 2026-05-08 08:59 | 63.57204 | 97.11532 | 30823 ft | 571 kts | 59° |
| 2026-05-08 09:00 | 63.60879 | 97.27245 | 30764 ft | 567 kts | 58° |
| 2026-05-08 09:00 | 63.64534 | 97.42944 | 30759 ft | 567 kts | 59° |
| 2026-05-08 09:01 | 63.68159 | 97.58725 | 30752 ft | 567 kts | 59° |
| 2026-05-08 09:01 | 63.71712 | 97.74604 | 30744 ft | 567 kts | 60° |
| 2026-05-08 09:02 | 63.75288 | 97.90491 | 30744 ft | 569 kts | 59° |
| 2026-05-08 09:02 | 63.78886 | 98.06435 | 30741 ft | 569 kts | 59° |
| 2026-05-08 09:03 | 63.82465 | 98.22379 | 30817 ft | 568 kts | 60° |
| 2026-05-08 09:03 | 63.85989 | 98.38221 | 30737 ft | 562 kts | 60° |
| 2026-05-08 09:04 | 63.89491 | 98.54078 | 30714 ft | 561 kts | 60° |
| 2026-05-08 09:04 | 63.92975 | 98.69969 | 30710 ft | 564 kts | 60° |
| 2026-05-08 09:05 | 63.96435 | 98.85908 | 30702 ft | 566 kts | 61° |
| 2026-05-08 09:05 | 63.99873 | 99.02043 | 30695 ft | 566 kts | 61° |
| 2026-05-08 09:06 | 64.03326 | 99.18182 | 30686 ft | 566 kts | 61° |
| 2026-05-08 09:06 | 64.06785 | 99.34321 | 30733 ft | 565 kts | 61° |
| 2026-05-08 09:07 | 64.10194 | 99.50341 | 30642 ft | 559 kts | 61° |
| 2026-05-08 09:07 | 64.13593 | 99.66430 | 30668 ft | 563 kts | 62° |
| 2026-05-08 09:08 | 64.16980 | 99.82600 | 30662 ft | 563 kts | 62° |
| 2026-05-08 09:08 | 64.20351 | 99.98827 | 30653 ft | 563 kts | 62° |
| 2026-05-08 09:09 | 64.23706 | 100.15097 | 30656 ft | 563 kts | 62° |
| 2026-05-08 09:09 | 64.27031 | 100.31350 | 30635 ft | 563 kts | 62° |
| 2026-05-08 09:10 | 64.30765 | 100.47162 | 30689 ft | 561 kts | 50° |
| 2026-05-08 09:10 | 64.33237 | 100.54003 | 30646 ft | 550 kts | 41° |
| 2026-05-08 09:10 | 64.36021 | 100.59991 | 30623 ft | 545 kts | 35° |
| 2026-05-08 09:11 | 64.41829 | 100.71188 | 30618 ft | 545 kts | 35° |
| 2026-05-08 09:11 | 64.44699 | 100.76933 | 30399 ft | 545 kts | 36° |
| 2026-05-08 09:11 | 64.47513 | 100.82871 | 30206 ft | 548 kts | 38° |
| 2026-05-08 09:12 | 64.50252 | 100.89009 | 30031 ft | 550 kts | 40° |
| 2026-05-08 09:12 | 64.52920 | 100.95409 | 29874 ft | 552 kts | 42° |
| 2026-05-08 09:12 | 64.55483 | 101.02045 | 29714 ft | 554 kts | 45° |
| 2026-05-08 09:12 | 64.57942 | 101.08980 | 29634 ft | 556 kts | 48° |
| 2026-05-08 09:13 | 64.60260 | 101.16173 | 29481 ft | 554 kts | 51° |
| 2026-05-08 09:13 | 64.62413 | 101.23609 | 29337 ft | 555 kts | 54° |
| 2026-05-08 09:13 | 64.64402 | 101.31361 | 29198 ft | 556 kts | 58° |
| 2026-05-08 09:13 | 64.66194 | 101.39373 | 28988 ft | 559 kts | 63° |
| 2026-05-08 09:14 | 64.67784 | 101.47708 | 28862 ft | 564 kts | 67° |
| 2026-05-08 09:14 | 64.69139 | 101.56317 | 28873 ft | 565 kts | 71° |
| 2026-05-08 09:14 | 64.70230 | 101.65147 | 29097 ft | 566 kts | 76° |
| 2026-05-08 09:14 | 64.71042 | 101.74174 | 29284 ft | 566 kts | 81° |
| 2026-05-08 09:15 | 64.71550 | 101.83276 | 29501 ft | 565 kts | 86° |
| 2026-05-08 09:15 | 64.71739 | 101.92323 | 29682 ft | 563 kts | 92° |
| 2026-05-08 09:15 | 64.71594 | 102.01468 | 29833 ft | 561 kts | 98° |
| 2026-05-08 09:15 | 64.71099 | 102.10483 | 29968 ft | 557 kts | 104° |
| 2026-05-08 09:16 | 64.70232 | 102.19398 | 30098 ft | 553 kts | 110° |
| 2026-05-08 09:16 | 64.69035 | 102.27744 | 30202 ft | 548 kts | 117° |
| 2026-05-08 09:16 | 64.67462 | 102.35797 | 30307 ft | 542 kts | 124° |
| 2026-05-08 09:16 | 64.65543 | 102.43294 | 30422 ft | 534 kts | 131° |
| 2026-05-08 09:17 | 64.63298 | 102.50109 | 30546 ft | 526 kts | 139° |
| 2026-05-08 09:17 | 64.60751 | 102.56137 | 30663 ft | 516 kts | 147° |
| 2026-05-08 09:17 | 64.57957 | 102.61229 | 30772 ft | 506 kts | 155° |
| 2026-05-08 09:17 | 64.54951 | 102.65306 | 30872 ft | 495 kts | 163° |
| 2026-05-08 09:18 | 64.51792 | 102.68273 | 30959 ft | 484 kts | 172° |